sensor_id;sensor_type;location;lat;lon;timestamp;P1;durP1;ratioP1;P2;durP2;ratioP2
76417;SDS011;65250;47.602;19.002;2024-01-27T00:02:12;6.18;;;3.42;;
76417;SDS011;65250;47.602;19.002;2024-01-27T00:04:39;8.35;;;3.55;;
76417;SDS011;65250;47.602;19.002;2024-01-27T00:07:06;5.28;;;2.92;;
76417;SDS011;65250;47.602;19.002;2024-01-27T00:09:33;6.57;;;2.57;;
76417;SDS011;65250;47.602;19.002;2024-01-27T00:12:00;6.55;;;2.55;;
76417;SDS011;65250;47.602;19.002;2024-01-27T00:14:27;7.68;;;3.08;;
76417;SDS011;65250;47.602;19.002;2024-01-27T00:16:54;3.90;;;2.58;;
76417;SDS011;65250;47.602;19.002;2024-01-27T00:19:21;7.38;;;2.90;;
76417;SDS011;65250;47.602;19.002;2024-01-27T00:21:48;5.77;;;2.63;;
76417;SDS011;65250;47.602;19.002;2024-01-27T00:24:15;4.95;;;2.33;;
76417;SDS011;65250;47.602;19.002;2024-01-27T00:26:42;3.90;;;2.30;;
76417;SDS011;65250;47.602;19.002;2024-01-27T00:29:10;4.78;;;2.00;;
76417;SDS011;65250;47.602;19.002;2024-01-27T00:31:37;4.78;;;1.73;;
76417;SDS011;65250;47.602;19.002;2024-01-27T00:34:04;2.97;;;1.87;;
76417;SDS011;65250;47.602;19.002;2024-01-27T00:36:31;4.82;;;1.75;;
76417;SDS011;65250;47.602;19.002;2024-01-27T00:38:58;3.63;;;1.10;;
76417;SDS011;65250;47.602;19.002;2024-01-27T00:41:25;3.50;;;1.00;;
76417;SDS011;65250;47.602;19.002;2024-01-27T00:43:52;1.98;;;1.00;;
76417;SDS011;65250;47.602;19.002;2024-01-27T00:46:19;3.17;;;0.80;;
76417;SDS011;65250;47.602;19.002;2024-01-27T00:48:46;3.30;;;0.70;;
76417;SDS011;65250;47.602;19.002;2024-01-27T00:51:13;1.52;;;0.80;;
76417;SDS011;65250;47.602;19.002;2024-01-27T00:53:40;3.35;;;1.10;;
76417;SDS011;65250;47.602;19.002;2024-01-27T00:56:07;2.67;;;0.50;;
76417;SDS011;65250;47.602;19.002;2024-01-27T00:58:34;1.57;;;0.43;;
76417;SDS011;65250;47.602;19.002;2024-01-27T01:01:01;1.73;;;0.30;;
76417;SDS011;65250;47.602;19.002;2024-01-27T01:03:28;2.05;;;0.60;;
76417;SDS011;65250;47.602;19.002;2024-01-27T01:05:55;5.55;;;0.43;;
76417;SDS011;65250;47.602;19.002;2024-01-27T01:08:22;1.52;;;0.40;;
76417;SDS011;65250;47.602;19.002;2024-01-27T01:10:49;1.53;;;0.40;;
76417;SDS011;65250;47.602;19.002;2024-01-27T01:13:15;1.90;;;0.50;;
76417;SDS011;65250;47.602;19.002;2024-01-27T01:15:43;1.67;;;0.60;;
76417;SDS011;65250;47.602;19.002;2024-01-27T01:18:09;1.42;;;0.60;;
76417;SDS011;65250;47.602;19.002;2024-01-27T01:20:36;2.92;;;0.65;;
76417;SDS011;65250;47.602;19.002;2024-01-27T01:23:03;1.07;;;0.53;;
76417;SDS011;65250;47.602;19.002;2024-01-27T01:25:30;4.00;;;0.40;;
76417;SDS011;65250;47.602;19.002;2024-01-27T01:27:57;2.25;;;0.52;;
76417;SDS011;65250;47.602;19.002;2024-01-27T01:30:24;2.53;;;0.55;;
76417;SDS011;65250;47.602;19.002;2024-01-27T01:32:51;2.10;;;0.50;;
76417;SDS011;65250;47.602;19.002;2024-01-27T01:35:18;1.90;;;0.60;;
76417;SDS011;65250;47.602;19.002;2024-01-27T01:37:45;1.95;;;0.47;;
76417;SDS011;65250;47.602;19.002;2024-01-27T01:40:14;1.98;;;0.50;;
76417;SDS011;65250;47.602;19.002;2024-01-27T01:42:42;4.20;;;0.60;;
76417;SDS011;65250;47.602;19.002;2024-01-27T01:45:09;4.15;;;0.98;;
76417;SDS011;65250;47.602;19.002;2024-01-27T01:47:38;0.90;;;0.20;;
76417;SDS011;65250;47.602;19.002;2024-01-27T01:50:07;2.88;;;0.40;;
76417;SDS011;65250;47.602;19.002;2024-01-27T01:52:34;0.55;;;0.30;;
76417;SDS011;65250;47.602;19.002;2024-01-27T01:55:01;1.05;;;0.30;;
76417;SDS011;65250;47.602;19.002;2024-01-27T01:57:27;1.40;;;0.20;;
76417;SDS011;65250;47.602;19.002;2024-01-27T01:59:55;0.73;;;0.30;;
76417;SDS011;65250;47.602;19.002;2024-01-27T02:02:22;3.05;;;0.25;;
76417;SDS011;65250;47.602;19.002;2024-01-27T02:04:49;0.80;;;0.30;;
76417;SDS011;65250;47.602;19.002;2024-01-27T02:07:16;3.28;;;0.60;;
76417;SDS011;65250;47.602;19.002;2024-01-27T02:09:42;0.52;;;0.13;;
76417;SDS011;65250;47.602;19.002;2024-01-27T02:12:10;0.77;;;0.27;;
76417;SDS011;65250;47.602;19.002;2024-01-27T02:14:37;2.05;;;0.40;;
76417;SDS011;65250;47.602;19.002;2024-01-27T02:17:04;2.05;;;0.38;;
76417;SDS011;65250;47.602;19.002;2024-01-27T02:19:31;0.45;;;0.15;;
76417;SDS011;65250;47.602;19.002;2024-01-27T02:21:58;2.97;;;0.35;;
76417;SDS011;65250;47.602;19.002;2024-01-27T02:24:25;1.43;;;0.20;;
76417;SDS011;65250;47.602;19.002;2024-01-27T02:26:54;1.60;;;0.20;;
76417;SDS011;65250;47.602;19.002;2024-01-27T02:29:21;0.35;;;0.10;;
76417;SDS011;65250;47.602;19.002;2024-01-27T02:31:48;0.77;;;0.10;;
76417;SDS011;65250;47.602;19.002;2024-01-27T02:34:14;0.43;;;0.00;;
76417;SDS011;65250;47.602;19.002;2024-01-27T02:36:42;0.97;;;0.10;;
76417;SDS011;65250;47.602;19.002;2024-01-27T02:39:10;0.40;;;0.10;;
76417;SDS011;65250;47.602;19.002;2024-01-27T02:41:37;0.73;;;0.35;;
76417;SDS011;65250;47.602;19.002;2024-01-27T02:44:06;1.02;;;0.00;;
76417;SDS011;65250;47.602;19.002;2024-01-27T02:46:32;0.63;;;0.00;;
76417;SDS011;65250;47.602;19.002;2024-01-27T02:48:59;1.67;;;0.10;;
76417;SDS011;65250;47.602;19.002;2024-01-27T02:51:26;0.08;;;0.00;;
76417;SDS011;65250;47.602;19.002;2024-01-27T02:53:53;1.05;;;0.10;;
76417;SDS011;65250;47.602;19.002;2024-01-27T02:56:20;0.98;;;0.10;;
76417;SDS011;65250;47.602;19.002;2024-01-27T02:58:47;0.65;;;0.00;;
76417;SDS011;65250;47.602;19.002;2024-01-27T03:01:14;1.33;;;0.00;;
76417;SDS011;65250;47.602;19.002;2024-01-27T03:03:41;0.57;;;0.10;;
76417;SDS011;65250;47.602;19.002;2024-01-27T03:06:08;0.40;;;0.00;;
76417;SDS011;65250;47.602;19.002;2024-01-27T03:08:35;0.40;;;0.00;;
76417;SDS011;65250;47.602;19.002;2024-01-27T03:11:02;0.88;;;0.03;;
76417;SDS011;65250;47.602;19.002;2024-01-27T03:13:29;0.20;;;0.00;;
76417;SDS011;65250;47.602;19.002;2024-01-27T03:15:56;0.43;;;0.03;;
76417;SDS011;65250;47.602;19.002;2024-01-27T03:18:23;2.47;;;0.10;;
76417;SDS011;65250;47.602;19.002;2024-01-27T03:20:51;0.10;;;0.00;;
76417;SDS011;65250;47.602;19.002;2024-01-27T03:23:18;0.47;;;0.00;;
76417;SDS011;65250;47.602;19.002;2024-01-27T03:25:45;0.67;;;0.00;;
76417;SDS011;65250;47.602;19.002;2024-01-27T03:28:12;0.35;;;0.00;;
76417;SDS011;65250;47.602;19.002;2024-01-27T03:30:39;0.30;;;0.00;;
76417;SDS011;65250;47.602;19.002;2024-01-27T03:33:06;1.20;;;0.00;;
76417;SDS011;65250;47.602;19.002;2024-01-27T03:35:37;0.50;;;0.00;;
76417;SDS011;65250;47.602;19.002;2024-01-27T03:38:07;1.30;;;0.10;;
76417;SDS011;65250;47.602;19.002;2024-01-27T03:40:35;0.43;;;0.00;;
76417;SDS011;65250;47.602;19.002;2024-01-27T03:43:02;0.20;;;0.00;;
76417;SDS011;65250;47.602;19.002;2024-01-27T03:45:29;3.47;;;0.10;;
76417;SDS011;65250;47.602;19.002;2024-01-27T03:47:55;1.60;;;0.10;;
76417;SDS011;65250;47.602;19.002;2024-01-27T03:50:22;1.30;;;0.00;;
76417;SDS011;65250;47.602;19.002;2024-01-27T03:52:49;1.65;;;0.08;;
76417;SDS011;65250;47.602;19.002;2024-01-27T03:55:16;0.28;;;0.00;;
76417;SDS011;65250;47.602;19.002;2024-01-27T03:57:43;0.15;;;0.00;;
76417;SDS011;65250;47.602;19.002;2024-01-27T04:00:10;1.48;;;0.00;;
76417;SDS011;65250;47.602;19.002;2024-01-27T04:02:38;0.00;;;0.00;;
76417;SDS011;65250;47.602;19.002;2024-01-27T04:05:05;1.17;;;0.22;;
76417;SDS011;65250;47.602;19.002;2024-01-27T04:07:33;4.03;;;0.30;;
76417;SDS011;65250;47.602;19.002;2024-01-27T04:10:01;2.70;;;0.10;;
76417;SDS011;65250;47.602;19.002;2024-01-27T04:12:29;0.38;;;0.05;;
76417;SDS011;65250;47.602;19.002;2024-01-27T04:14:57;0.30;;;0.00;;
76417;SDS011;65250;47.602;19.002;2024-01-27T04:17:26;2.08;;;0.17;;
76417;SDS011;65250;47.602;19.002;2024-01-27T04:19:53;1.15;;;0.20;;
76417;SDS011;65250;47.602;19.002;2024-01-27T04:22:20;0.32;;;0.08;;
76417;SDS011;65250;47.602;19.002;2024-01-27T04:24:47;0.32;;;0.00;;
76417;SDS011;65250;47.602;19.002;2024-01-27T04:27:14;0.87;;;0.10;;
76417;SDS011;65250;47.602;19.002;2024-01-27T04:29:40;0.20;;;0.05;;
76417;SDS011;65250;47.602;19.002;2024-01-27T04:32:08;1.65;;;0.10;;
76417;SDS011;65250;47.602;19.002;2024-01-27T04:34:35;1.00;;;0.20;;
76417;SDS011;65250;47.602;19.002;2024-01-27T04:37:02;1.35;;;0.10;;
76417;SDS011;65250;47.602;19.002;2024-01-27T04:39:29;1.53;;;0.40;;
76417;SDS011;65250;47.602;19.002;2024-01-27T04:41:56;0.20;;;0.03;;
76417;SDS011;65250;47.602;19.002;2024-01-27T04:44:23;1.60;;;0.10;;
76417;SDS011;65250;47.602;19.002;2024-01-27T04:46:50;2.47;;;0.20;;
76417;SDS011;65250;47.602;19.002;2024-01-27T04:49:17;0.30;;;0.10;;
76417;SDS011;65250;47.602;19.002;2024-01-27T04:51:44;0.90;;;0.20;;
76417;SDS011;65250;47.602;19.002;2024-01-27T04:54:11;0.93;;;0.20;;
76417;SDS011;65250;47.602;19.002;2024-01-27T04:56:37;2.10;;;0.10;;
76417;SDS011;65250;47.602;19.002;2024-01-27T04:59:04;0.35;;;0.10;;
76417;SDS011;65250;47.602;19.002;2024-01-27T05:01:31;0.40;;;0.08;;
76417;SDS011;65250;47.602;19.002;2024-01-27T05:03:59;0.30;;;0.00;;
76417;SDS011;65250;47.602;19.002;2024-01-27T05:06:26;1.77;;;0.03;;
76417;SDS011;65250;47.602;19.002;2024-01-27T05:08:53;1.35;;;0.20;;
76417;SDS011;65250;47.602;19.002;2024-01-27T05:11:29;2.45;;;0.30;;
76417;SDS011;65250;47.602;19.002;2024-01-27T05:14:00;0.28;;;0.20;;
76417;SDS011;65250;47.602;19.002;2024-01-27T05:16:27;3.13;;;0.20;;
76417;SDS011;65250;47.602;19.002;2024-01-27T05:18:54;1.33;;;0.30;;
76417;SDS011;65250;47.602;19.002;2024-01-27T05:21:21;1.92;;;0.38;;
76417;SDS011;65250;47.602;19.002;2024-01-27T05:23:48;2.97;;;0.20;;
76417;SDS011;65250;47.602;19.002;2024-01-27T05:26:15;1.23;;;0.10;;
76417;SDS011;65250;47.602;19.002;2024-01-27T05:28:42;3.33;;;0.30;;
76417;SDS011;65250;47.602;19.002;2024-01-27T05:31:09;0.52;;;0.00;;
76417;SDS011;65250;47.602;19.002;2024-01-27T05:33:36;2.83;;;0.10;;
76417;SDS011;65250;47.602;19.002;2024-01-27T05:36:03;4.03;;;0.50;;
76417;SDS011;65250;47.602;19.002;2024-01-27T05:38:30;2.63;;;0.10;;
76417;SDS011;65250;47.602;19.002;2024-01-27T05:41:01;1.60;;;0.13;;
76417;SDS011;65250;47.602;19.002;2024-01-27T05:43:29;2.10;;;0.03;;
76417;SDS011;65250;47.602;19.002;2024-01-27T05:45:55;2.28;;;0.40;;
76417;SDS011;65250;47.602;19.002;2024-01-27T05:48:22;1.65;;;0.00;;
76417;SDS011;65250;47.602;19.002;2024-01-27T05:50:59;0.68;;;0.10;;
76417;SDS011;65250;47.602;19.002;2024-01-27T05:53:26;0.90;;;0.10;;
76417;SDS011;65250;47.602;19.002;2024-01-27T05:55:53;1.40;;;0.10;;
76417;SDS011;65250;47.602;19.002;2024-01-27T05:58:21;2.10;;;0.50;;
76417;SDS011;65250;47.602;19.002;2024-01-27T06:00:48;0.57;;;0.10;;
76417;SDS011;65250;47.602;19.002;2024-01-27T06:03:15;2.05;;;0.20;;
76417;SDS011;65250;47.602;19.002;2024-01-27T06:05:43;2.70;;;0.50;;
76417;SDS011;65250;47.602;19.002;2024-01-27T06:08:10;3.88;;;0.20;;
76417;SDS011;65250;47.602;19.002;2024-01-27T06:10:38;1.75;;;0.20;;
76417;SDS011;65250;47.602;19.002;2024-01-27T06:13:04;0.40;;;0.03;;
76417;SDS011;65250;47.602;19.002;2024-01-27T06:15:31;2.38;;;0.03;;
76417;SDS011;65250;47.602;19.002;2024-01-27T06:17:59;1.60;;;0.10;;
76417;SDS011;65250;47.602;19.002;2024-01-27T06:20:26;2.30;;;0.08;;
76417;SDS011;65250;47.602;19.002;2024-01-27T06:22:53;4.30;;;0.20;;
76417;SDS011;65250;47.602;19.002;2024-01-27T06:25:20;1.85;;;0.10;;
76417;SDS011;65250;47.602;19.002;2024-01-27T06:27:47;5.57;;;0.20;;
76417;SDS011;65250;47.602;19.002;2024-01-27T06:30:15;2.33;;;0.43;;
76417;SDS011;65250;47.602;19.002;2024-01-27T06:32:43;2.53;;;0.10;;
76417;SDS011;65250;47.602;19.002;2024-01-27T06:35:10;4.97;;;0.40;;
76417;SDS011;65250;47.602;19.002;2024-01-27T06:37:37;1.83;;;0.00;;
76417;SDS011;65250;47.602;19.002;2024-01-27T06:40:04;5.50;;;0.95;;
76417;SDS011;65250;47.602;19.002;2024-01-27T06:42:31;2.00;;;0.20;;
76417;SDS011;65250;47.602;19.002;2024-01-27T06:44:59;1.40;;;0.40;;
76417;SDS011;65250;47.602;19.002;2024-01-27T06:47:25;2.15;;;0.13;;
76417;SDS011;65250;47.602;19.002;2024-01-27T06:49:53;3.30;;;0.03;;
76417;SDS011;65250;47.602;19.002;2024-01-27T06:52:20;1.70;;;0.10;;
76417;SDS011;65250;47.602;19.002;2024-01-27T06:54:46;0.63;;;0.00;;
76417;SDS011;65250;47.602;19.002;2024-01-27T06:57:20;1.27;;;0.10;;
76417;SDS011;65250;47.602;19.002;2024-01-27T06:59:47;0.43;;;0.10;;
76417;SDS011;65250;47.602;19.002;2024-01-27T07:02:27;0.85;;;0.10;;
76417;SDS011;65250;47.602;19.002;2024-01-27T07:04:57;8.25;;;0.40;;
76417;SDS011;65250;47.602;19.002;2024-01-27T07:07:27;2.73;;;0.00;;
76417;SDS011;65250;47.602;19.002;2024-01-27T07:09:55;4.90;;;0.30;;
76417;SDS011;65250;47.602;19.002;2024-01-27T07:12:22;1.40;;;0.30;;
76417;SDS011;65250;47.602;19.002;2024-01-27T07:14:49;1.35;;;0.30;;
76417;SDS011;65250;47.602;19.002;2024-01-27T07:17:21;3.47;;;0.20;;
76417;SDS011;65250;47.602;19.002;2024-01-27T07:19:48;1.67;;;0.20;;
76417;SDS011;65250;47.602;19.002;2024-01-27T07:22:15;3.17;;;0.15;;
76417;SDS011;65250;47.602;19.002;2024-01-27T07:24:42;2.25;;;0.30;;
76417;SDS011;65250;47.602;19.002;2024-01-27T07:27:11;2.50;;;0.30;;
76417;SDS011;65250;47.602;19.002;2024-01-27T07:29:39;0.93;;;0.17;;
76417;SDS011;65250;47.602;19.002;2024-01-27T07:32:06;2.83;;;0.80;;
76417;SDS011;65250;47.602;19.002;2024-01-27T07:34:35;2.95;;;0.30;;
76417;SDS011;65250;47.602;19.002;2024-01-27T07:37:02;1.58;;;0.10;;
76417;SDS011;65250;47.602;19.002;2024-01-27T07:39:29;6.03;;;0.55;;
76417;SDS011;65250;47.602;19.002;2024-01-27T07:41:56;6.63;;;0.50;;
76417;SDS011;65250;47.602;19.002;2024-01-27T07:44:23;5.17;;;0.60;;
76417;SDS011;65250;47.602;19.002;2024-01-27T07:46:49;1.67;;;0.50;;
76417;SDS011;65250;47.602;19.002;2024-01-27T07:49:16;6.78;;;0.47;;
76417;SDS011;65250;47.602;19.002;2024-01-27T07:51:45;2.95;;;0.20;;
76417;SDS011;65250;47.602;19.002;2024-01-27T07:54:12;2.55;;;0.50;;
76417;SDS011;65250;47.602;19.002;2024-01-27T07:56:39;4.23;;;0.33;;
76417;SDS011;65250;47.602;19.002;2024-01-27T07:59:05;1.05;;;0.30;;
76417;SDS011;65250;47.602;19.002;2024-01-27T08:01:40;2.78;;;0.75;;
76417;SDS011;65250;47.602;19.002;2024-01-27T08:04:07;1.75;;;0.47;;
76417;SDS011;65250;47.602;19.002;2024-01-27T08:06:45;0.52;;;0.30;;
76417;SDS011;65250;47.602;19.002;2024-01-27T08:09:12;2.17;;;0.37;;
76417;SDS011;65250;47.602;19.002;2024-01-27T08:11:39;2.30;;;0.25;;
76417;SDS011;65250;47.602;19.002;2024-01-27T08:14:06;1.30;;;0.20;;
76417;SDS011;65250;47.602;19.002;2024-01-27T08:16:33;1.80;;;0.68;;
76417;SDS011;65250;47.602;19.002;2024-01-27T08:19:00;2.63;;;0.28;;
76417;SDS011;65250;47.602;19.002;2024-01-27T08:21:27;1.57;;;0.17;;
76417;SDS011;65250;47.602;19.002;2024-01-27T08:23:54;0.95;;;0.10;;
76417;SDS011;65250;47.602;19.002;2024-01-27T08:26:24;4.57;;;0.30;;
76417;SDS011;65250;47.602;19.002;2024-01-27T08:28:50;4.47;;;0.65;;
76417;SDS011;65250;47.602;19.002;2024-01-27T08:31:17;1.83;;;0.40;;
76417;SDS011;65250;47.602;19.002;2024-01-27T08:33:44;2.93;;;0.23;;
76417;SDS011;65250;47.602;19.002;2024-01-27T08:36:14;5.45;;;0.45;;
76417;SDS011;65250;47.602;19.002;2024-01-27T08:38:41;1.95;;;0.40;;
76417;SDS011;65250;47.602;19.002;2024-01-27T08:41:08;3.70;;;0.60;;
76417;SDS011;65250;47.602;19.002;2024-01-27T08:43:35;1.65;;;0.45;;
76417;SDS011;65250;47.602;19.002;2024-01-27T08:46:02;2.20;;;0.63;;
76417;SDS011;65250;47.602;19.002;2024-01-27T08:48:29;1.50;;;0.45;;
76417;SDS011;65250;47.602;19.002;2024-01-27T08:50:56;2.20;;;0.60;;
76417;SDS011;65250;47.602;19.002;2024-01-27T08:53:23;1.42;;;0.13;;
76417;SDS011;65250;47.602;19.002;2024-01-27T08:55:50;3.20;;;0.52;;
76417;SDS011;65250;47.602;19.002;2024-01-27T08:58:16;3.20;;;0.50;;
76417;SDS011;65250;47.602;19.002;2024-01-27T09:00:43;1.95;;;0.60;;
76417;SDS011;65250;47.602;19.002;2024-01-27T09:03:10;0.85;;;0.40;;
76417;SDS011;65250;47.602;19.002;2024-01-27T09:05:39;2.28;;;0.65;;
76417;SDS011;65250;47.602;19.002;2024-01-27T09:08:07;1.27;;;0.25;;
76417;SDS011;65250;47.602;19.002;2024-01-27T09:10:34;3.27;;;0.30;;
76417;SDS011;65250;47.602;19.002;2024-01-27T09:13:01;3.70;;;0.50;;
76417;SDS011;65250;47.602;19.002;2024-01-27T09:15:28;2.72;;;0.55;;
76417;SDS011;65250;47.602;19.002;2024-01-27T09:17:55;0.73;;;0.30;;
76417;SDS011;65250;47.602;19.002;2024-01-27T09:20:22;0.88;;;0.20;;
76417;SDS011;65250;47.602;19.002;2024-01-27T09:22:49;1.00;;;0.40;;
76417;SDS011;65250;47.602;19.002;2024-01-27T09:25:17;1.25;;;0.30;;
76417;SDS011;65250;47.602;19.002;2024-01-27T09:27:44;2.08;;;0.45;;
76417;SDS011;65250;47.602;19.002;2024-01-27T09:30:11;1.00;;;0.20;;
76417;SDS011;65250;47.602;19.002;2024-01-27T09:32:39;2.60;;;0.57;;
76417;SDS011;65250;47.602;19.002;2024-01-27T09:35:06;1.53;;;0.40;;
76417;SDS011;65250;47.602;19.002;2024-01-27T09:37:33;1.50;;;0.17;;
76417;SDS011;65250;47.602;19.002;2024-01-27T09:40:00;1.52;;;0.40;;
76417;SDS011;65250;47.602;19.002;2024-01-27T09:42:29;1.98;;;0.40;;
76417;SDS011;65250;47.602;19.002;2024-01-27T09:44:56;1.23;;;0.43;;
76417;SDS011;65250;47.602;19.002;2024-01-27T09:47:25;2.17;;;0.77;;
76417;SDS011;65250;47.602;19.002;2024-01-27T09:49:52;4.38;;;0.45;;
76417;SDS011;65250;47.602;19.002;2024-01-27T09:52:19;2.70;;;0.45;;
76417;SDS011;65250;47.602;19.002;2024-01-27T09:54:46;2.20;;;0.50;;
76417;SDS011;65250;47.602;19.002;2024-01-27T09:57:13;1.05;;;0.30;;
76417;SDS011;65250;47.602;19.002;2024-01-27T09:59:40;1.50;;;0.40;;
76417;SDS011;65250;47.602;19.002;2024-01-27T10:02:11;1.67;;;0.28;;
76417;SDS011;65250;47.602;19.002;2024-01-27T10:04:42;1.35;;;0.30;;
76417;SDS011;65250;47.602;19.002;2024-01-27T10:07:09;2.88;;;0.35;;
76417;SDS011;65250;47.602;19.002;2024-01-27T10:09:36;1.02;;;0.30;;
76417;SDS011;65250;47.602;19.002;2024-01-27T10:12:04;0.63;;;0.30;;
76417;SDS011;65250;47.602;19.002;2024-01-27T10:14:38;3.58;;;0.68;;
76417;SDS011;65250;47.602;19.002;2024-01-27T10:17:11;2.00;;;0.40;;
76417;SDS011;65250;47.602;19.002;2024-01-27T10:19:38;1.67;;;0.32;;
76417;SDS011;65250;47.602;19.002;2024-01-27T10:22:10;3.30;;;0.38;;
76417;SDS011;65250;47.602;19.002;2024-01-27T10:24:38;2.20;;;0.40;;
76417;SDS011;65250;47.602;19.002;2024-01-27T10:27:05;1.27;;;0.25;;
76417;SDS011;65250;47.602;19.002;2024-01-27T10:29:32;3.25;;;0.30;;
76417;SDS011;65250;47.602;19.002;2024-01-27T10:32:09;2.13;;;0.30;;
76417;SDS011;65250;47.602;19.002;2024-01-27T10:34:37;2.22;;;0.32;;
76417;SDS011;65250;47.602;19.002;2024-01-27T10:37:04;3.53;;;0.30;;
76417;SDS011;65250;47.602;19.002;2024-01-27T10:39:31;1.65;;;0.35;;
76417;SDS011;65250;47.602;19.002;2024-01-27T10:41:58;6.13;;;0.85;;
76417;SDS011;65250;47.602;19.002;2024-01-27T10:44:29;0.85;;;0.30;;
76417;SDS011;65250;47.602;19.002;2024-01-27T10:46:56;2.22;;;0.40;;
76417;SDS011;65250;47.602;19.002;2024-01-27T10:49:23;1.33;;;0.37;;
76417;SDS011;65250;47.602;19.002;2024-01-27T10:54:24;2.10;;;0.50;;
76417;SDS011;65250;47.602;19.002;2024-01-27T10:56:55;1.42;;;0.40;;
76417;SDS011;65250;47.602;19.002;2024-01-27T10:59:25;3.42;;;0.93;;
76417;SDS011;65250;47.602;19.002;2024-01-27T11:01:53;2.73;;;0.60;;
76417;SDS011;65250;47.602;19.002;2024-01-27T11:04:21;2.60;;;0.63;;
76417;SDS011;65250;47.602;19.002;2024-01-27T11:06:49;2.65;;;0.50;;
76417;SDS011;65250;47.602;19.002;2024-01-27T11:09:17;1.35;;;0.47;;
76417;SDS011;65250;47.602;19.002;2024-01-27T11:11:45;1.42;;;0.47;;
76417;SDS011;65250;47.602;19.002;2024-01-27T11:14:12;1.13;;;0.53;;
76417;SDS011;65250;47.602;19.002;2024-01-27T11:16:39;4.10;;;0.60;;
76417;SDS011;65250;47.602;19.002;2024-01-27T11:19:11;3.25;;;0.60;;
76417;SDS011;65250;47.602;19.002;2024-01-27T11:21:39;1.77;;;0.40;;
76417;SDS011;65250;47.602;19.002;2024-01-27T11:24:15;2.88;;;0.40;;
76417;SDS011;65250;47.602;19.002;2024-01-27T11:26:43;1.10;;;0.40;;
76417;SDS011;65250;47.602;19.002;2024-01-27T11:29:11;4.25;;;0.80;;
76417;SDS011;65250;47.602;19.002;2024-01-27T11:31:48;2.17;;;0.40;;
76417;SDS011;65250;47.602;19.002;2024-01-27T11:34:17;2.30;;;0.43;;
76417;SDS011;65250;47.602;19.002;2024-01-27T11:36:45;1.50;;;0.45;;
76417;SDS011;65250;47.602;19.002;2024-01-27T11:39:28;1.70;;;0.60;;
76417;SDS011;65250;47.602;19.002;2024-01-27T11:42:09;1.20;;;0.40;;
76417;SDS011;65250;47.602;19.002;2024-01-27T11:44:41;4.90;;;0.40;;
76417;SDS011;65250;47.602;19.002;2024-01-27T11:47:16;2.53;;;0.60;;
76417;SDS011;65250;47.602;19.002;2024-01-27T11:49:48;3.30;;;0.50;;
76417;SDS011;65250;47.602;19.002;2024-01-27T11:52:19;2.37;;;0.77;;
76417;SDS011;65250;47.602;19.002;2024-01-27T11:54:46;2.63;;;0.70;;
76417;SDS011;65250;47.602;19.002;2024-01-27T11:57:13;1.80;;;0.73;;
76417;SDS011;65250;47.602;19.002;2024-01-27T11:59:39;2.40;;;0.70;;
76417;SDS011;65250;47.602;19.002;2024-01-27T12:02:07;5.03;;;0.88;;
76417;SDS011;65250;47.602;19.002;2024-01-27T12:04:34;3.43;;;0.70;;
76417;SDS011;65250;47.602;19.002;2024-01-27T12:07:01;2.65;;;0.82;;
76417;SDS011;65250;47.602;19.002;2024-01-27T12:09:28;1.52;;;0.55;;
76417;SDS011;65250;47.602;19.002;2024-01-27T12:11:55;2.47;;;0.77;;
76417;SDS011;65250;47.602;19.002;2024-01-27T12:14:22;2.45;;;1.00;;
76417;SDS011;65250;47.602;19.002;2024-01-27T12:16:50;2.57;;;1.17;;
76417;SDS011;65250;47.602;19.002;2024-01-27T12:19:17;3.85;;;0.80;;
76417;SDS011;65250;47.602;19.002;2024-01-27T12:21:48;3.50;;;0.65;;
76417;SDS011;65250;47.602;19.002;2024-01-27T12:24:15;2.05;;;0.43;;
76417;SDS011;65250;47.602;19.002;2024-01-27T12:26:48;3.60;;;0.57;;
76417;SDS011;65250;47.602;19.002;2024-01-27T12:29:15;2.87;;;0.47;;
76417;SDS011;65250;47.602;19.002;2024-01-27T12:31:41;2.78;;;0.88;;
76417;SDS011;65250;47.602;19.002;2024-01-27T12:34:09;1.95;;;0.60;;
76417;SDS011;65250;47.602;19.002;2024-01-27T12:36:40;1.55;;;0.68;;
76417;SDS011;65250;47.602;19.002;2024-01-27T12:39:08;2.08;;;0.55;;
76417;SDS011;65250;47.602;19.002;2024-01-27T12:41:36;4.60;;;0.40;;
76417;SDS011;65250;47.602;19.002;2024-01-27T12:44:03;1.80;;;0.43;;
76417;SDS011;65250;47.602;19.002;2024-01-27T12:46:30;4.65;;;0.75;;
76417;SDS011;65250;47.602;19.002;2024-01-27T12:48:58;1.92;;;0.38;;
76417;SDS011;65250;47.602;19.002;2024-01-27T12:51:25;3.05;;;0.52;;
76417;SDS011;65250;47.602;19.002;2024-01-27T12:53:52;3.00;;;0.30;;
76417;SDS011;65250;47.602;19.002;2024-01-27T12:56:19;2.35;;;0.52;;
76417;SDS011;65250;47.602;19.002;2024-01-27T12:58:46;2.55;;;0.50;;
76417;SDS011;65250;47.602;19.002;2024-01-27T13:01:13;3.50;;;0.45;;
76417;SDS011;65250;47.602;19.002;2024-01-27T13:03:40;4.35;;;0.40;;
76417;SDS011;65250;47.602;19.002;2024-01-27T13:06:11;3.40;;;0.40;;
76417;SDS011;65250;47.602;19.002;2024-01-27T13:08:39;5.57;;;0.50;;
76417;SDS011;65250;47.602;19.002;2024-01-27T13:11:08;2.47;;;0.47;;
76417;SDS011;65250;47.602;19.002;2024-01-27T13:13:35;3.58;;;0.40;;
76417;SDS011;65250;47.602;19.002;2024-01-27T13:16:01;3.70;;;0.70;;
76417;SDS011;65250;47.602;19.002;2024-01-27T13:18:28;1.20;;;0.37;;
76417;SDS011;65250;47.602;19.002;2024-01-27T13:20:56;4.50;;;0.35;;
76417;SDS011;65250;47.602;19.002;2024-01-27T13:23:22;3.25;;;0.75;;
76417;SDS011;65250;47.602;19.002;2024-01-27T13:25:49;3.45;;;0.47;;
76417;SDS011;65250;47.602;19.002;2024-01-27T13:28:36;3.83;;;0.63;;
76417;SDS011;65250;47.602;19.002;2024-01-27T13:31:03;2.80;;;0.50;;
76417;SDS011;65250;47.602;19.002;2024-01-27T13:33:31;2.22;;;0.45;;
76417;SDS011;65250;47.602;19.002;2024-01-27T13:35:59;1.95;;;0.43;;
76417;SDS011;65250;47.602;19.002;2024-01-27T13:38:26;4.57;;;0.55;;
76417;SDS011;65250;47.602;19.002;2024-01-27T13:40:53;3.08;;;0.85;;
76417;SDS011;65250;47.602;19.002;2024-01-27T13:43:20;2.50;;;0.53;;
76417;SDS011;65250;47.602;19.002;2024-01-27T13:45:47;3.63;;;0.47;;
76417;SDS011;65250;47.602;19.002;2024-01-27T13:48:14;1.88;;;0.57;;
76417;SDS011;65250;47.602;19.002;2024-01-27T13:50:42;3.95;;;0.80;;
76417;SDS011;65250;47.602;19.002;2024-01-27T13:53:09;3.35;;;0.90;;
76417;SDS011;65250;47.602;19.002;2024-01-27T13:55:36;1.13;;;0.53;;
76417;SDS011;65250;47.602;19.002;2024-01-27T13:58:03;3.95;;;0.95;;
76417;SDS011;65250;47.602;19.002;2024-01-27T14:00:32;1.52;;;0.32;;
76417;SDS011;65250;47.602;19.002;2024-01-27T14:03:01;3.50;;;0.50;;
76417;SDS011;65250;47.602;19.002;2024-01-27T14:05:28;3.00;;;0.20;;
76417;SDS011;65250;47.602;19.002;2024-01-27T14:07:56;3.93;;;1.03;;
76417;SDS011;65250;47.602;19.002;2024-01-27T14:10:23;3.90;;;0.38;;
76417;SDS011;65250;47.602;19.002;2024-01-27T14:12:51;4.88;;;0.73;;
76417;SDS011;65250;47.602;19.002;2024-01-27T14:15:18;2.78;;;0.50;;
76417;SDS011;65250;47.602;19.002;2024-01-27T14:17:45;4.18;;;0.47;;
76417;SDS011;65250;47.602;19.002;2024-01-27T14:20:12;4.40;;;0.57;;
76417;SDS011;65250;47.602;19.002;2024-01-27T14:22:40;3.65;;;0.38;;
76417;SDS011;65250;47.602;19.002;2024-01-27T14:25:07;2.42;;;0.52;;
76417;SDS011;65250;47.602;19.002;2024-01-27T14:27:34;3.08;;;0.75;;
76417;SDS011;65250;47.602;19.002;2024-01-27T14:30:02;4.00;;;0.57;;
76417;SDS011;65250;47.602;19.002;2024-01-27T14:32:29;5.23;;;0.70;;
76417;SDS011;65250;47.602;19.002;2024-01-27T14:34:56;3.65;;;0.70;;
76417;SDS011;65250;47.602;19.002;2024-01-27T14:37:23;2.15;;;0.47;;
76417;SDS011;65250;47.602;19.002;2024-01-27T14:39:50;3.70;;;0.88;;